• Join FlightAware (Why Join?)
  • Login
  • US Flag 
11:29AM EDT


 

Airport Tracker/Info


-or-


 

Live Flight TrackerFlight Track Log ✈ EJA312 ✈ 24-Oct-2013 ✈ CYQM - KPIT

Flight Track Log - Related Links

Times and Time Zones

All times are in EDT time to prevent confusion due to time zone crossing. See the EJA312 flight status page for this flight to view local times or setup timezone preferences in your user account.

Time Position Orientation Groundspeed Altitude Reporting Facility
EDT Latitude Longitude Course Direction KTS MPH feet Rate Location/Type
12:02PM 46.1000 -64.7167 231° Southwest 150 173 2,000  Level Moncton Center
12:03PM 46.0833 -64.7833 250° West 190 219 5,300 3,600 Climbing Moncton Center
12:04PM 46.0500 -64.8500 234° Southwest 220 253 9,300 3,420 Climbing Moncton Center
12:05PM 46.0000 -64.9333 229° Southwest 240 276 12,200 2,820 Climbing Moncton Center
12:08PM 45.9238 -65.3801 231° Southwest  Level Estimated
12:11PM 45.7569 -65.3262 229° Southwest 297 342 27,600  Level FlightAware ADS-B (CYQI)
12:12PM 45.6539 -65.4879 228° Southwest 299 344 29,100 1,740 Climbing FlightAware ADS-B (CYQI)
12:12PM 45.6138 -65.5505 228° Southwest 303 349 30,000 1,200 Climbing FlightAware ADS-B (CYQI)
12:13PM 45.5838 -65.5972 227° Southwest 316 364 30,500 1,020 Climbing FlightAware ADS-B (CYQI)
12:13PM 45.5475 -65.6536 227° Southwest 315 362 31,200 1,380 Climbing FlightAware ADS-B (CYQI)
12:14PM 45.5162 -65.7024 228° Southwest 311 358 32,000 1,260 Climbing FlightAware ADS-B (CYQI)
12:15PM 45.4682 -65.7768 227° Southwest 311 358 33,000 600 Climbing FlightAware ADS-B (CYQI)
12:15PM 45.4269 -65.8407 227° Southwest 328 377 33,000  Level FlightAware ADS-B (CYQI)
12:16PM 45.3951 -65.9014 233° Southwest 338 389 33,000  Level FlightAware ADS-B (CYQI)
12:16PM 45.3740 -65.9582 242° Southwest 345 397 33,000  Level FlightAware ADS-B (CYQI)
12:17PM 45.3464 -66.0292 241° Southwest 351 404 33,000  Level FlightAware ADS-B (CYQI)
12:18PM 45.3249 -66.0846 241° Southwest 352 405 33,000 660 Level FlightAware ADS-B (CYQI)
12:18PM 45.2915 -66.1708 241° Southwest 333 383 33,800 1,320 Climbing FlightAware ADS-B (CYQI)
12:19PM 45.2623 -66.2464 241° Southwest 314 361 34,800 1,320 Climbing FlightAware ADS-B (CYQI)
12:20PM 45.2349 -66.3166 241° Southwest 300 345 35,600 1,140 Climbing FlightAware ADS-B (CYQI)
12:20PM 45.2141 -66.3700 241° Southwest 289 333 36,200 1,080 Climbing FlightAware ADS-B (CYQI)
12:21PM 45.1859 -66.4423 241° Southwest 277 319 37,100 1,020 Climbing FlightAware ADS-B (CYQI)
12:21PM 45.1637 -66.4989 241° Southwest 269 310 37,600 960 Climbing FlightAware ADS-B (CYQI)
12:22PM 45.1452 -66.5460 241° Southwest 263 303 38,100 840 Climbing FlightAware ADS-B (CYQI)
12:23PM 45.1212 -66.6068 241° Southwest 261 300 38,600 540 Climbing FlightAware ADS-B (CYQI)
12:23PM 45.1014 -66.6570 241° Southwest 266 306 38,800 420 Climbing FlightAware ADS-B (CYQI)
12:24PM 45.0835 -66.7026 241° Southwest 264 304 39,100 660 Climbing FlightAware ADS-B (CYQI)
12:24PM 45.0652 -66.7659 248° West 262 302 39,600 300 Climbing FlightAware ADS-B (CYQI)
12:27PM 45.3061 -66.1334 61° Northeast 343 395 40,000 60 Climbing FlightAware ADS-B (CYSG)
12:29PM 44.9305 -67.2312 245° Southwest 285 328 40,000  Level FlightAware ADS-B (KBGR)
12:30PM 44.9107 -67.2985 248° West 297 342 40,000  Level FlightAware ADS-B (CYSG)
12:30PM 44.8931 -67.3586 248° West 303 349 40,000  Level FlightAware ADS-B (CYQI)
12:31PM 44.8842 -67.3887 247° West 309 356 40,000  Level FlightAware ADS-B (KBGR)
12:31PM 44.8584 -67.4764 247° West 313 360 40,000  Level FlightAware ADS-B (KBGR)
12:32PM 44.8407 -67.5364 247° West 314 361 40,000  Level FlightAware ADS-B (CYQI)
12:32PM 44.8237 -67.5939 247° West 313 360 40,000  Level FlightAware ADS-B (CYQI)
12:33PM 44.8027 -67.6647 247° West 313 360 40,000  Level FlightAware ADS-B (CYQI)
12:33PM 44.7858 -67.7217 247° West 313 360 40,000  Level FlightAware ADS-B (CYQI)
12:34PM 44.7673 -67.7837 247° West 313 360 40,000  Level FlightAware ADS-B (CYSG)
12:34PM 44.7506 -67.8395 247° West 311 358 40,000  Level FlightAware ADS-B (CYQI)
12:35PM 44.7343 -67.8942 247° West 311 358 40,000  Level FlightAware ADS-B (CYQI)
12:35PM 44.7164 -67.9538 247° West 311 358 40,000  Level FlightAware ADS-B (CYQI)
12:36PM 44.6992 -68.0107 247° West 312 359 40,000  Level FlightAware ADS-B (CYQI)
12:36PM 44.6819 -68.0680 247° West 314 361 40,000  Level FlightAware ADS-B (CYQI)
12:37PM 44.6749 -68.0910 247° West 311 358 40,000  Level FlightAware ADS-B
12:37PM 44.6576 -68.1483 247° West 314 361 40,000  Level FlightAware ADS-B (KBGR)
12:37PM 44.6506 -68.1716 247° West 312 359 40,000  Level FlightAware ADS-B
12:38PM 44.6335 -68.2280 247° West 313 360 40,000  Level FlightAware ADS-B (KBGR)
12:38PM 44.6281 -68.2456 247° West 310 357 40,000  Level FlightAware ADS-B
12:38PM 44.6265 -68.2511 247° West 310 357 40,000  Level FlightAware ADS-B
12:39PM 44.6054 -68.3200 247° West 314 361 40,000  Level FlightAware ADS-B (KBGR)
12:39PM 44.5999 -68.3382 247° West 312 359 40,000  Level FlightAware ADS-B
12:39PM 44.5963 -68.3499 247° West 313 360 40,000  Level FlightAware ADS-B
12:39PM 44.5843 -68.3892 247° West 317 365 40,000  Level FlightAware ADS-B
12:40PM 44.5771 -68.4127 247° West 318 366 40,000  Level FlightAware ADS-B
12:40PM 44.5696 -68.4373 247° West 316 364 40,000  Level FlightAware ADS-B
12:40PM 44.5598 -68.4691 247° West 317 365 40,000  Level FlightAware ADS-B
12:41PM 44.5416 -68.5285 247° West 318 366 40,000  Level FlightAware ADS-B (KBGR)
12:41PM 44.5253 -68.5816 247° West 317 365 40,000  Level FlightAware ADS-B (CYQI)
12:42PM 44.5067 -68.6418 247° West 319 367 40,000  Level FlightAware ADS-B (CYQI)
12:42PM 44.4984 -68.6686 247° West 316 364 40,000  Level FlightAware ADS-B
12:42PM 44.4792 -68.7306 247° West 320 368 40,000  Level FlightAware ADS-B (KBGR)
12:43PM 44.4587 -68.7965 246° West 321 369 40,000  Level FlightAware ADS-B (KBGR)
12:43PM 44.4420 -68.8502 246° West 324 373 40,000  Level FlightAware ADS-B (CYSG)
12:44PM 44.4231 -68.9111 246° West 323 372 40,000  Level FlightAware ADS-B (KBGR)
12:44PM 44.4053 -68.9680 246° West 324 373 40,000  Level FlightAware ADS-B (KBGR)
12:45PM 44.3923 -69.0098 246° West 324 373 40,000  Level FlightAware ADS-B (CYSG)
12:45PM 44.3736 -69.0692 246° West 324 373 40,000  Level FlightAware ADS-B (CYSG)
12:46PM 44.3529 -69.1350 246° West 326 375 40,000  Level FlightAware ADS-B
12:46PM 44.3336 -69.1963 246° West 327 376 40,000  Level FlightAware ADS-B (KBGR)
12:47PM 44.3127 -69.2609 246° West 328 377 40,000  Level FlightAware ADS-B (CYSG)
12:47PM 44.3065 -69.2796 245° Southwest 325 374 40,000  Level FlightAware ADS-B
12:48PM 44.2792 -69.3610 245° Southwest 328 377 40,000  Level FlightAware ADS-B (CYQI)
12:49PM 44.2488 -69.4520 245° Southwest 330 380 40,000  Level FlightAware ADS-B (CYQI)
12:49PM 44.2302 -69.5073 245° Southwest 330 380 40,000  Level FlightAware ADS-B (CYSG)
12:50PM 44.2067 -69.5772 245° Southwest 330 380 40,000  Level FlightAware ADS-B (CYQI)
12:50PM 44.1808 -69.6544 245° Southwest 330 380 40,000  Level FlightAware ADS-B (CYQI)
12:51PM 44.1605 -69.7146 245° Southwest 332 382 40,000  Level FlightAware ADS-B (CYQI)
12:51PM 44.1414 -69.7710 245° Southwest 332 382 40,000  Level FlightAware ADS-B (CYQI)
12:52PM 44.1323 -69.7977 245° Southwest 334 384 40,000  Level FlightAware ADS-B (CYQI)
12:53PM 44.0864 -69.9329 245° Southwest 336 387 40,000  Level FlightAware ADS-B
12:53PM 44.0668 -69.9908 245° Southwest 337 388 40,000  Level FlightAware ADS-B
12:54PM 44.0546 -70.0262 245° Southwest 335 386 40,000  Level FlightAware ADS-B (CYQI)
12:55PM 44.0155 -70.1402 245° Southwest 336 387 40,000  Level FlightAware ADS-B (CYQI)
12:55PM 43.9946 -70.2013 244° Southwest 333 383 40,000  Level FlightAware ADS-B (CYQI)
12:56PM 43.9738 -70.2614 244° Southwest 335 386 40,000  Level FlightAware ADS-B
12:56PM 43.9539 -70.3191 244° Southwest 337 388 40,000  Level FlightAware ADS-B (CYQI)
12:57PM 43.9293 -70.3906 244° Southwest 332 382 40,000  Level FlightAware ADS-B
12:57PM 43.9067 -70.4556 244° Southwest 331 381 40,000  Level FlightAware ADS-B
12:58PM 43.8960 -70.4865 244° Southwest 325 374 40,000  Level FlightAware ADS-B
12:58PM 43.8748 -70.5474 244° Southwest 326 375 40,000  Level FlightAware ADS-B
12:59PM 43.8504 -70.6172 244° Southwest 330 380 40,000  Level FlightAware ADS-B (CYQI)
12:59PM 43.8340 -70.6642 244° Southwest 329 379 40,000  Level FlightAware ADS-B (CYQI)
01:00PM 43.8089 -70.7356 244° Southwest 331 381 40,000  Level FlightAware ADS-B
01:00PM 43.7876 -70.7963 244° Southwest 332 382 40,000  Level FlightAware ADS-B
01:01PM 43.7609 -70.8723 244° Southwest 337 388 40,000  Level FlightAware ADS-B
01:02PM 43.7329 -70.9517 244° Southwest 333 383 40,000  Level FlightAware ADS-B
01:02PM 43.7127 -71.0086 244° Southwest 335 386 40,000  Level FlightAware ADS-B
01:03PM 43.6971 -71.0529 244° Southwest 336 387 40,000  Level FlightAware ADS-B (CYQI)
01:03PM 43.6685 -71.1330 244° Southwest 335 386 40,000  Level FlightAware ADS-B
01:04PM 43.6384 -71.2176 244° Southwest 339 390 40,000  Level FlightAware ADS-B
01:04PM 43.6174 -71.2764 244° Southwest 341 392 40,000  Level FlightAware ADS-B
01:05PM 43.6121 -71.2911 244° Southwest 341 392 40,000  Level FlightAware ADS-B
01:05PM 43.6043 -71.3129 244° Southwest 341 392 40,000  Level FlightAware ADS-B
01:05PM 43.5819 -71.3753 244° Southwest 339 390 40,000  Level FlightAware ADS-B
01:06PM 43.5606 -71.4348 244° Southwest 340 391 40,000  Level FlightAware ADS-B
01:06PM 43.5512 -71.4607 244° Southwest 344 396 40,000  Level FlightAware ADS-B
01:06PM 43.5403 -71.4910 244° Southwest 339 390 40,000  Level FlightAware ADS-B
01:06PM 43.5328 -71.5117 244° Southwest 339 390 40,000  Level FlightAware ADS-B
01:07PM 43.5255 -71.5322 244° Southwest 338 389 40,000  Level FlightAware ADS-B
01:07PM 43.5187 -71.5509 243° Southwest 338 389 40,000  Level FlightAware ADS-B
01:07PM 43.5110 -71.5721 244° Southwest 339 390 40,000  Level FlightAware ADS-B
01:07PM 43.5141 -71.5635 64° Northeast 342 394 40,000  Level FlightAware ADS-B
01:08PM 43.4830 -71.6495 244° Southwest 338 389 40,000  Level FlightAware ADS-B
01:08PM 43.4620 -71.7075 243° Southwest 337 388 40,000  Level FlightAware ADS-B
01:09PM 43.4408 -71.7658 243° Southwest 337 388 40,000  Level FlightAware ADS-B
01:09PM 43.4193 -71.8245 243° Southwest 338 389 40,000  Level FlightAware ADS-B
01:09PM 43.4136 -71.8400 243° Southwest 338 389 40,000  Level FlightAware ADS-B
01:10PM 43.3965 -71.8870 243° Southwest 341 392 40,000  Level FlightAware ADS-B (KSNC)
01:10PM 43.3719 -71.9541 243° Southwest 340 391 40,000  Level FlightAware ADS-B (KSNC)
01:11PM 43.3544 -72.0019 243° Southwest 338 389 40,000  Level FlightAware ADS-B (KBOS)
01:11PM 43.3497 -72.0147 243° Southwest 338 389 40,000  Level FlightAware ADS-B (KBOS)
01:11PM 43.3270 -72.0763 243° Southwest 335 386 40,000  Level FlightAware ADS-B
01:12PM 43.3056 -72.1343 243° Southwest 336 387 40,000  Level FlightAware ADS-B
01:12PM 43.2844 -72.1919 243° Southwest 337 388 40,000  Level FlightAware ADS-B
01:13PM 43.2720 -72.2254 243° Southwest 337 388 40,000  Level FlightAware ADS-B
01:13PM 43.2573 -72.2651 243° Southwest 336 387 40,000  Level FlightAware ADS-B
01:13PM 43.2426 -72.3049 243° Southwest 340 391 40,000  Level FlightAware ADS-B
01:13PM 43.2348 -72.3258 243° Southwest 337 388 40,000  Level FlightAware ADS-B
01:14PM 43.2276 -72.3451 243° Southwest 337 388 40,000  Level FlightAware ADS-B
01:14PM 43.2234 -72.3564 243° Southwest 341 392 40,000  Level FlightAware ADS-B (KSNC)
01:14PM 43.1993 -72.4212 243° Southwest 337 388 40,000  Level FlightAware ADS-B
01:15PM 43.6910 -71.0710 63° Northeast 337 388 40,000  Level FlightAware ADS-B
01:15PM 43.1723 -72.4936 244° Southwest 338 389 40,000  Level FlightAware ADS-B
01:15PM 43.1752 -72.4857 63° Northeast 341 392 40,000  Level FlightAware ADS-B (KSNC)
01:15PM 43.6900 -71.0740 63° Northeast 337 388 40,000  Level FlightAware ADS-B
01:15PM 43.1482 -72.5578 244° Southwest 335 386 40,000  Level FlightAware ADS-B
01:16PM 43.1400 -72.5797 243° Southwest 340 391 40,000  Level FlightAware ADS-B (KSNC)
01:16PM 43.1322 -72.6005 243° Southwest 340 391 40,000  Level FlightAware ADS-B (KSNC)
01:16PM 43.1066 -72.6685 243° Southwest 337 388 40,000  Level FlightAware ADS-B
01:17PM 43.0938 -72.7026 243° Southwest 330 380 40,000  Level FlightAware ADS-B
01:17PM 43.0904 -72.7115 243° Southwest 330 380 40,000  Level FlightAware ADS-B
01:18PM 43.0580 -72.7974 243° Southwest 333 383 40,000  Level FlightAware ADS-B
01:19PM 43.0309 -72.8691 243° Southwest 333 383 40,000  Level FlightAware ADS-B
01:19PM 42.9955 -72.9622 243° Southwest 332 382 40,000  Level FlightAware ADS-B
01:20PM 42.9955 -72.9622 243° Southwest 329 379 40,000  Level FlightAware ADS-B
01:21PM 42.9411 -73.1051 243° Southwest 331 381 40,000  Level FlightAware ADS-B
01:21PM 42.9133 -73.1780 243° Southwest 329 379 40,000  Level FlightAware ADS-B
01:22PM 42.8878 -73.2445 242° Southwest 329 379 40,000  Level FlightAware ADS-B
01:22PM 42.8761 -73.2749 242° Southwest 331 381 40,000  Level FlightAware ADS-B
01:23PM 42.8223 -73.4146 242° Southwest 333 383 40,000  Level FlightAware ADS-B
01:24PM 42.8223 -73.4146 242° Southwest 335 386 40,000  Level FlightAware ADS-B
01:25PM 42.7385 -73.6310 242° Southwest 335 386 40,000  Level FlightAware ADS-B
01:26PM 42.6945 -73.7437 242° Southwest 338 389 40,000  Level FlightAware ADS-B (KSNC)
01:27PM 42.6598 -73.8321 242° Southwest 341 392 40,000  Level FlightAware ADS-B
01:29PM 42.5842 -74.0244 242° Southwest 342 394 40,000  Level FlightAware ADS-B
01:29PM 42.5507 -74.1091 242° Southwest 339 390 40,000  Level FlightAware ADS-B
01:30PM 42.5237 -74.1776 242° Southwest 336 387 40,000  Level FlightAware ADS-B (KSNC)
01:31PM 42.4942 -74.2522 242° Southwest 337 388 40,000  Level Boston Center
01:32PM 42.4506 -74.3611 242° Southwest 332 382 40,000  Level Boston Center
01:33PM 42.4100 -74.4622 242° Southwest 333 383 40,000 -180 Level Boston Center
01:34PM 42.3572 -74.5961 242° Southwest 336 387 39,700 -1,020 Descending Boston Center
01:35PM 42.3125 -74.7072 241° Southwest 336 387 37,900 -1,740 Descending Boston Center
01:36PM 42.2664 -74.8186 241° Southwest 339 390 36,100 -1,860 Descending Boston Center
01:37PM 42.2192 -74.9356 241° Southwest 350 403 34,200 -1,920 Descending Boston Center
01:38PM 42.1722 -75.0522 242° Southwest 354 407 32,300 -1,920 Descending Boston Center
01:39PM 42.1247 -75.1719 242° Southwest 359 413 30,400 -1,860 Descending Boston Center
01:40PM 42.0758 -75.2894 241° Southwest 359 413 28,500 -1,260 Descending Boston Center
01:41PM 42.0506 -75.4322 257° West 358 412 28,000 -300 Descending New York Center
01:42PM 42.0303 -75.5706 259° West 371 427 28,000  Level New York Center
01:43PM 42.0122 -75.7086 260° West 376 433 28,000  Level New York Center
01:44PM 41.9939 -75.8467 260° West 383 441 28,000  Level New York Center
01:45PM 41.9753 -75.9878 260° West 389 448 28,000  Level New York Center
01:46PM 41.9572 -76.1144 259° West 389 448 28,000  Level New York Center
01:47PM 41.9383 -76.2553 260° West 389 448 28,000  Level New York Center
01:48PM 41.9186 -76.4069 260° West 384 442 28,000  Level New York Center
01:49PM 41.9014 -76.5503 261° West 389 448 28,000 -300 Level New York Center
01:51PM 41.8586 -76.8558 259° West 389 448 27,100 -780 Descending Boston Center
01:52PM 41.8389 -76.9989 260° West 390 449 25,600 -1,380 Descending Boston Center
01:53PM 41.7925 -77.1925 252° West 390 449 24,000 -720 Descending Cleveland Center
01:54PM 41.7475 -77.3256 246° West 389 448 24,000  Level Cleveland Center
01:55PM 41.7025 -77.4542 245° Southwest 385 443 24,000  Level Cleveland Center
01:57PM 41.6550 -77.5861 244° Southwest 384 442 24,000  Level Cleveland Center
01:58PM 41.6100 -77.7119 244° Southwest 379 436 24,000 -480 Level Cleveland Center
01:59PM 41.5647 -77.8414 245° Southwest 388 447 23,100 -1,020 Descending Cleveland Center
02:00PM 41.5086 -78.0022 245° Southwest 400 460 22,000 -540 Descending Cleveland Center
02:01PM 41.4611 -78.1311 244° Southwest 393 452 22,000  Level Cleveland Center
02:02PM 41.4156 -78.2583 245° Southwest 386 444 22,000  Level Cleveland Center
02:03PM 41.3647 -78.3992 244° Southwest 390 449 22,000  Level Cleveland Center
02:04PM 41.3222 -78.5242 246° West 378 435 22,000  Level Cleveland Center
02:05PM 41.2764 -78.6503 244° Southwest 388 447 22,000  Level Cleveland Center
02:06PM 41.2311 -78.7750 244° Southwest 386 444 22,000  Level Cleveland Center
02:07PM 41.1953 -78.8800 246° West 402 463 22,000  Level Cleveland Center
02:08PM 41.1328 -79.0506 244° Southwest 377 434 22,000 -1,020 Level Cleveland Center
02:09PM 41.0819 -79.1858 244° Southwest 418 481 19,900 -2,040 Descending Cleveland Center
02:10PM 41.0378 -79.3094 245° Southwest 383 441 17,900 -1,920 Descending Cleveland Center
02:11PM 40.9922 -79.4306 244° Southwest 371 427 16,000 -1,860 Descending Cleveland Center
02:12PM 40.9486 -79.5517 245° Southwest 368 423 14,100 -1,920 Descending Cleveland Center
02:13PM 40.9033 -79.6722 244° Southwest 351 404 12,100 -1,920 Descending Cleveland Center
02:14PM 40.8581 -79.7933 244° Southwest 330 380 10,200 -1,020 Descending Cleveland Center
02:15PM 40.7794 -79.8533 210° Southwest 324 373 10,000 -1,080 Descending Cleveland Center
02:19PM 40.4449 -80.0331 210° Southwest 248 285 4,700 -1,320 Descending FlightAware ADS-B
02:20PM 40.4365 -80.0509 238° Southwest 250 288 3,900 -2,100 Descending FlightAware ADS-B
02:20PM 40.4258 -80.0914 251° West 229 264 3,200 -1,740 Descending FlightAware ADS-B
02:21PM 40.4295 -80.1218 279° West 176 203 2,500 -1,140 Descending FlightAware ADS-B
02:21PM 40.4426 -80.1492 302° West 147 169 2,100 -660 Descending FlightAware ADS-B
02:21PM 40.4483 -80.1591 307° West 120 138 2,000  Descending FlightAware ADS-B
02:22PM 40.4439 -80.1561 307° West 187 215 2,100 -300 Climbing Cleveland Center
02:23PM 40.4664 -80.1872 314° West 144 166 1,500 -600 Descending Cleveland Center
02:25PM 40.4833 -80.2167 270° West  Level FlightAware Approximate
02:32PM 40.4914 -80.2327 270° West  Level Estimated